Flight Track Log - Related Links

Times and Time Zones

All times are in EDT time to prevent confusion due to time zone crossing. See the N662US flight status page for this flight to view local times or setup timezone preferences in your user account.


Time Position Orientation Groundspeed Altitude Reporting Facility
EDT Latitude Longitude Course Direction KTS MPH feet Rate Location/Type
Tue 06:45:00 PM 47.4176 -122.6344 323° Northwest  Level FlightAware Approximate
Tue 06:46:00 PM 47.5224 -122.7522 323° Northwest  Level FlightAware Approximate
Tue 06:47:00 PM 47.6204 -122.8818 317° Northwest  Level FlightAware Approximate
Tue 06:47:01 PM 47.4280 -122.6010 317° Northwest 302 348 9,400  Level FlightAware ADS-B
Tue 06:47:35 PM 47.4430 -122.6220 317° Northwest 306 352 10,100 1,650 Climbing FlightAware ADS-B
Tue 06:48:21 PM 47.5140 -122.7270 315° West 362 417 11,600 1,744 Climbing FlightAware ADS-B
Tue 06:49:01 PM 47.5630 -122.7980 316° Northwest 392 451 12,600 1,976 Climbing FlightAware ADS-B
Tue 06:49:46 PM 47.6210 -122.8910 313° West 408 470 14,400 2,400 Climbing FlightAware ADS-B
Tue 06:50:26 PM 47.6730 -122.9760 312° West 419 482 16,000 2,188 Climbing FlightAware ADS-B
Tue 06:51:11 PM 47.7310 -123.0690 313° West 429 494 17,500 2,047 Climbing FlightAware ADS-B
Tue 06:51:51 PM 47.7870 -123.1620 312° West 438 504 18,900 1,976 Climbing FlightAware ADS-B
Tue 06:52:36 PM 47.8480 -123.2630 312° West 448 516 20,300 1,694 Climbing FlightAware ADS-B
Tue 06:53:16 PM 47.8990 -123.3460 313° West 454 522 21,300 1,624 Climbing FlightAware ADS-B
Tue 06:54:01 PM 47.9670 -123.4590 312° West 463 533 22,600 1,624 Climbing FlightAware ADS-B
Tue 06:54:41 PM 48.0240 -123.5550 312° West 471 542 23,600 1,516 Climbing FlightAware ADS-B
Tue 06:55:36 PM 48.1050 -123.6900 312° West 483 556 25,000 1,380 Climbing FlightAware ADS-B
Tue 06:56:21 PM 48.1720 -123.8030 312° West 492 566 25,900 1,200 Climbing FlightAware ADS-B
Tue 06:57:01 PM 48.2340 -123.9090 311° West 499 574 26,700 1,125 Climbing FlightAware ADS-B
Tue 06:57:41 PM 48.2950 -124.0100 312° West 506 582 27,400 1,129 Climbing FlightAware ADS-B
Tue 06:58:26 PM 48.3640 -124.1300 311° West 511 588 28,300 1,341 Climbing FlightAware ADS-B
Tue 06:59:06 PM 48.4270 -124.2360 312° West 509 586 29,300 1,350 Climbing FlightAware ADS-B
Tue 06:59:46 PM 48.4900 -124.3450 311° West 511 588 30,100 1,172 Climbing FlightAware ADS-B
Tue 07:00:33 PM 48.5640 -124.4710 312° West 512 589 31,000 1,103 Climbing FlightAware ADS-B
Tue 07:01:13 PM 48.6250 -124.5790 311° West 511 588 31,700 732 Climbing FlightAware ADS-B
Tue 07:01:55 PM 48.6870 -124.6870 311° West 513 590 32,000 220 Climbing FlightAware ADS-B
Tue 07:02:35 PM 48.7520 -124.8010 311° West 510 587 32,000  Level FlightAware ADS-B
Tue 07:03:19 PM 48.8210 -124.9200 311° West 511 588 32,000  Level FlightAware ADS-B
Tue 07:04:01 PM 48.8850 -125.0340 311° West 511 588 32,000  Level FlightAware ADS-B
Tue 07:04:41 PM 48.9460 -125.1430 310° West 514 592 32,000  Level FlightAware ADS-B
Tue 07:05:27 PM 49.0140 -125.2610 311° West 514 592 32,000  Level FlightAware ADS-B
Tue 07:06:17 PM 49.0920 -125.4010 310° West 511 588 32,000  Level FlightAware ADS-B
Tue 07:06:57 PM 49.1560 -125.5160 310° West 509 586 32,000  Level FlightAware ADS-B
Tue 07:07:37 PM 49.2160 -125.6260 310° West 508 585 32,000  Level FlightAware ADS-B
Tue 07:08:19 PM 49.2800 -125.7410 310° West 508 585 32,000  Level FlightAware ADS-B
Tue 07:09:05 PM 49.3500 -125.8680 310° West 508 585 32,000  Level FlightAware ADS-B
Tue 07:09:43 PM 49.4070 -125.9730 310° West 508 585 32,000  Level FlightAware ADS-B
Tue 07:10:29 PM 49.4770 -126.1000 310° West 509 586 32,000  Level FlightAware ADS-B
Tue 07:11:03 PM 49.5270 -126.1950 309° West 510 587 32,000  Level FlightAware ADS-B
Tue 07:11:47 PM 49.5930 -126.3180 310° West 510 587 32,000  Level FlightAware ADS-B
Tue 07:12:33 PM 49.6630 -126.4470 310° West 510 587 32,000  Level FlightAware ADS-B
Tue 07:13:15 PM 49.7260 -126.5650 310° West 510 587 32,000  Level FlightAware ADS-B
Tue 07:13:55 PM 49.7840 -126.6750 309° West 510 587 32,000  Level FlightAware ADS-B
Tue 07:14:39 PM 49.8500 -126.7990 310° West 510 587 32,000  Level FlightAware ADS-B
Tue 07:15:16 PM 49.9030 -126.8980 310° West 511 588 32,000  Level FlightAware ADS-B
Tue 07:16:01 PM 49.9710 -127.0280 309° West 511 588 32,000  Level FlightAware ADS-B
Tue 07:16:45 PM 50.0370 -127.1530 309° West 510 587 32,000  Level FlightAware ADS-B
Tue 07:17:26 PM 50.0970 -127.2700 309° West 511 588 32,000  Level FlightAware ADS-B
Tue 07:18:07 PM 50.1500 -127.3730 309° West 509 586 32,000  Level FlightAware ADS-B
Tue 07:18:46 PM 50.2130 -127.4930 309° West 512 589 32,000  Level FlightAware ADS-B
Tue 07:19:46 PM 50.3130 -127.6650 312° West 512 589 32,000  Level FlightAware ADS-B
Tue 07:20:26 PM 50.3770 -127.7680 314° West 511 588 32,000  Level FlightAware ADS-B
Tue 07:21:26 PM 50.4690 -127.9130 315° West 511 588 32,000  Level FlightAware ADS-B
Tue 07:22:05 PM 50.5350 -128.0180 315° West 511 588 32,000  Level FlightAware ADS-B
Tue 07:22:52 PM 50.6020 -128.1230 315° West 511 588 32,000  Level FlightAware ADS-B
Tue 07:23:29 PM 50.6540 -128.2060 315° West 511 588 32,000  Level FlightAware ADS-B
Tue 07:24:06 PM 50.7070 -128.2890 315° West 511 588 32,000  Level FlightAware ADS-B
Tue 07:24:54 PM 50.7750 -128.3970 315° West 511 588 32,000  Level FlightAware ADS-B
Tue 07:25:35 PM 50.8330 -128.4890 315° West 511 588 32,000  Level FlightAware ADS-B
Tue 07:26:12 PM 50.8860 -128.5730 315° West 511 588 32,000  Level FlightAware ADS-B
Tue 07:27:01 PM 50.9560 -128.6830 315° West 511 588 32,000  Level FlightAware ADS-B
Tue 07:27:37 PM 51.0070 -128.7640 315° West 511 588 32,000  Level FlightAware ADS-B
Tue 07:28:25 PM 51.0750 -128.8730 315° West 511 588 32,000  Level FlightAware ADS-B
Tue 07:29:01 PM 51.1260 -128.9540 315° West 511 588 32,000  Level FlightAware ADS-B
Tue 07:29:49 PM 51.1940 -129.0630 315° West 511 588 32,000  Level FlightAware ADS-B
Tue 07:30:26 PM 51.2470 -129.1470 315° West 511 588 32,000  Level FlightAware ADS-B
Tue 07:31:16 PM 51.3180 -129.2610 315° West 511 588 32,000  Level FlightAware ADS-B
Tue 07:32:17 PM 51.5167 -129.7000 315° West 510 587 32,000  Level Vancouver Center
Tue 07:33:17 PM 51.6167 -129.8833 311° West 510 587 32,000  Level Vancouver Center
Tue 07:34:17 PM 51.7167 -130.0333 317° Northwest 500 575 32,000  Level Vancouver Center
Tue 07:35:17 PM 51.8000 -130.2000 309° West 510 587 32,000  Level Vancouver Center
Tue 07:36:17 PM 51.9000 -130.3833 312° West 500 575 32,000  Level Vancouver Center
Tue 07:37:17 PM 51.9833 -130.5333 312° West 510 587 32,000 300 Level Vancouver Center
Tue 07:38:17 PM 52.1000 -130.7000 319° Northwest 500 575 32,600 800 Climbing Vancouver Center
Tue 07:39:17 PM 52.1833 -130.8500 312° West 510 587 33,600 700 Climbing Vancouver Center
Tue 07:40:17 PM 52.2833 -131.0333 312° West 510 587 34,000 200 Climbing Vancouver Center
Tue 07:41:17 PM 52.3667 -131.2167 307° West 510 587 34,000  Level Vancouver Center
Tue 07:42:17 PM 52.4500 -131.3667 312° West 510 587 34,000  Level Vancouver Center
Tue 07:43:17 PM 52.5667 -131.5500 316° Northwest 500 575 34,000  Level Vancouver Center
Tue 07:44:17 PM 52.6500 -131.7333 307° West 510 587 34,000  Level Vancouver Center
Tue 07:45:17 PM 52.7333 -131.9167 307° West 510 587 34,000  Level Vancouver Center
Tue 07:46:17 PM 52.8333 -132.0667 318° Northwest 510 587 34,000  Level Vancouver Center
Tue 07:47:17 PM 52.9167 -132.2500 307° West 500 575 34,000  Level Vancouver Center
Tue 07:48:17 PM 53.0167 -132.4333 312° West 500 575 34,000  Level Vancouver Center
Tue 07:49:17 PM 53.1167 -132.6000 315° West 510 587 34,000  Level Vancouver Center
Tue 07:50:17 PM 53.2000 -132.7833 307° West 510 587 34,000  Level Vancouver Center
Tue 07:51:17 PM 53.3000 -132.9667 312° West 510 587 34,000  Level Vancouver Center
Tue 07:52:17 PM 53.3833 -133.1333 310° West 510 587 34,000  Level Vancouver Center
Tue 07:53:17 PM 53.4667 -133.3167 307° West 510 587 34,000  Level Vancouver Center
Tue 07:54:17 PM 53.5667 -133.5167 310° West 510 587 34,000  Level Vancouver Center
Tue 07:55:17 PM 53.6667 -133.7000 313° West 510 587 34,000  Level Vancouver Center
Tue 07:56:17 PM 53.7500 -133.8667 310° West 510 587 34,000  Level Vancouver Center
Tue 07:57:17 PM 53.8333 -134.0500 308° West 510 587 34,000  Level Vancouver Center
Tue 07:58:17 PM 53.9333 -134.1833 322° Northwest 500 575 34,000  Level Anchorage Center
Tue 07:59:17 PM 54.0167 -134.3667 308° West 500 575 34,000  Level Anchorage Center
Tue 08:00:18 PM 54.1000 -134.5500 308° West 510 587 34,000  Level Anchorage Center
Tue 08:01:18 PM 54.2000 -134.7333 313° West 510 587 34,000  Level Anchorage Center
Tue 08:02:18 PM 54.2833 -134.9333 306° West 510 587 34,000  Level Anchorage Center
Tue 08:03:18 PM 54.3667 -135.1000 311° West 500 575 34,000  Level Anchorage Center
Tue 08:04:19 PM 54.4667 -135.3000 311° West 500 575 34,000  Level Anchorage Center
Tue 08:05:19 PM 54.5333 -135.4500 307° West 500 575 34,000  Level Anchorage Center
Tue 08:06:19 PM 54.6333 -135.6500 311° West 500 575 34,000  Level Anchorage Center
Tue 08:07:20 PM 54.7167 -135.8333 308° West 500 575 34,000  Level Anchorage Center
Tue 08:08:20 PM 54.8000 -136.0167 308° West 500 575 34,000  Level Anchorage Center
Tue 08:09:20 PM 54.8833 -136.2000 308° West 500 575 34,000  Level Anchorage Center
Tue 08:10:21 PM 54.9667 -136.4000 306° West 500 575 34,000  Level Anchorage Center
Tue 08:11:21 PM 55.0667 -136.5833 314° West 500 575 34,000  Level Anchorage Center
Tue 08:12:21 PM 55.1500 -136.7833 306° West 500 575 34,000  Level Anchorage Center
Tue 08:13:22 PM 55.2333 -136.9667 309° West 500 575 34,000  Level Anchorage Center
Tue 08:14:22 PM 55.3333 -137.2000 307° West 500 575 34,000  Level Anchorage Center
Tue 08:15:17 PM 55.4000 -137.4167 299° West 500 575 34,000  Level Vancouver Center
Tue 08:16:17 PM 55.4667 -137.6167 301° West 500 575 34,000  Level Vancouver Center
Tue 08:17:23 PM 55.5667 -137.7500 323° Northwest 490 564 34,000  Level Anchorage Center
Tue 08:18:24 PM 55.6667 -137.9833 307° West 490 564 34,000  Level Anchorage Center
Tue 08:19:24 PM 55.7500 -138.1667 309° West 480 552 34,000  Level Anchorage Center
Tue 08:20:24 PM 55.8333 -138.3667 307° West 490 564 34,000  Level Anchorage Center
Tue 08:21:24 PM 55.9000 -138.5167 308° West 490 564 34,000  Level Anchorage Center
Tue 08:22:24 PM 56.0000 -138.7500 308° West 490 564 34,000  Level Anchorage Center
Tue 08:23:25 PM 56.0667 -138.9167 306° West 490 564 34,000  Level Anchorage Center
Tue 08:24:25 PM 56.1333 -139.1000 303° West 480 552 34,000  Level Anchorage Center
Tue 08:25:25 PM 56.2333 -139.3500 306° West 490 564 34,000  Level Anchorage Center
Tue 08:26:26 PM 56.3167 -139.5500 307° West 480 552 34,000  Level Anchorage Center
Tue 08:27:26 PM 56.4000 -139.7333 309° West 490 564 34,000  Level Anchorage Center
Tue 08:28:26 PM 56.4667 -139.9333 301° West 490 564 34,000  Level Anchorage Center
Tue 08:29:27 PM 56.5333 -140.1500 299° West 490 564 34,000  Level Anchorage Center
Tue 08:30:27 PM 56.6000 -140.3833 298° West 490 564 34,000  Level Anchorage Center
Tue 08:31:28 PM 56.6500 -140.6000 293° West 480 552 34,000  Level Anchorage Center
Tue 08:32:28 PM 56.7000 -140.8167 293° West 490 564 34,000  Level Anchorage Center
Tue 08:33:28 PM 56.7500 -141.0500 291° West 500 575 34,000  Level Anchorage Center
Tue 08:34:29 PM 56.8000 -141.2667 293° West 480 552 34,000  Level Anchorage Center
Tue 08:35:29 PM 56.8500 -141.5000 291° West 490 564 34,000  Level Anchorage Center
Tue 08:36:29 PM 56.9167 -141.7167 299° West 480 552 34,000  Level Anchorage Center
Tue 08:37:30 PM 56.9667 -141.9500 292° West 480 552 34,000  Level Anchorage Center
Tue 08:38:30 PM 57.0167 -142.1667 293° West 480 552 34,000  Level Anchorage Center
Tue 08:39:30 PM 57.0667 -142.4000 292° West 490 564 34,000  Level Anchorage Center
Tue 08:40:31 PM 57.1167 -142.6333 292° West 480 552 34,000  Level Anchorage Center
Tue 08:41:31 PM 57.1667 -142.8667 292° West 480 552 34,000  Level Anchorage Center
Tue 08:42:31 PM 57.2333 -143.1167 296° West 480 552 34,000  Level Anchorage Center
Tue 08:43:32 PM 57.2833 -143.3667 290° West 490 564 34,000  Level Anchorage Center
Tue 08:44:32 PM 57.3333 -143.5833 293° West 480 552 34,000  Level Anchorage Center
Tue 08:45:32 PM 57.3833 -143.8167 292° West 470 541 34,000  Level Anchorage Center
Tue 08:46:32 PM 57.4167 -144.0500 285° West 480 552 34,000  Level Anchorage Center
Tue 08:47:33 PM 57.4667 -144.2833 292° West 480 552 34,000  Level Anchorage Center
Tue 08:48:33 PM 57.5167 -144.5167 292° West 480 552 34,000  Level Anchorage Center
Tue 08:49:33 PM 57.5667 -144.7500 292° West 480 552 34,000  Level Anchorage Center
Tue 08:50:34 PM 57.6167 -144.9833 292° West 480 552 34,000  Level Anchorage Center
Tue 08:51:34 PM 57.6667 -145.2333 291° West 480 552 34,000  Level Anchorage Center
Tue 08:52:34 PM 57.7167 -145.4667 292° West 480 552 34,000  Level Anchorage Center
Tue 08:53:35 PM 57.7500 -145.7000 285° West 480 552 34,000  Level Anchorage Center
Tue 08:54:35 PM 57.8000 -145.9500 291° West 490 564 34,000  Level Anchorage Center
Tue 08:55:35 PM 57.8500 -146.1833 292° West 490 564 34,000  Level Anchorage Center
Tue 08:56:36 PM 57.9000 -146.4167 292° West 480 552 34,000  Level Anchorage Center
Tue 08:57:36 PM 57.9333 -146.6667 284° West 480 552 34,000  Level Anchorage Center
Tue 08:58:37 PM 57.9833 -146.9000 292° West 480 552 34,000  Level Anchorage Center
Tue 08:59:37 PM 58.0167 -147.1333 285° West 470 541 34,000  Level Anchorage Center
Tue 09:00:37 PM 58.0667 -147.3833 291° West 480 552 34,000  Level Anchorage Center
Tue 09:01:38 PM 58.1000 -147.6167 285° West 480 552 34,000  Level Anchorage Center
Tue 09:02:38 PM 58.1500 -147.8500 292° West 470 541 34,000  Level Anchorage Center
Tue 09:03:38 PM 58.1833 -148.1000 284° West 480 552 34,000  Level Anchorage Center
Tue 09:04:39 PM 58.2333 -148.3333 292° West 470 541 34,000  Level Anchorage Center
Tue 09:05:39 PM 58.2667 -148.5833 284° West 470 541 34,000  Level Anchorage Center
Tue 09:10:55 PM 58.4880 -149.9200 284° West 492 566 34,000  Level FlightAware ADS-B
Tue 09:11:34 PM 58.5080 -150.0590 285° West 492 566 34,000  Level FlightAware ADS-B
Tue 09:12:23 PM 58.5320 -150.2350 285° West 492 566 34,000  Level FlightAware ADS-B
Tue 09:13:00 PM 58.5510 -150.3670 285° West 492 566 34,000  Level FlightAware ADS-B
Tue 09:13:44 PM 58.5560 -150.6370 272° West 496 571 34,000  Level FlightAware ADS-B
Tue 09:14:29 PM 58.5710 -150.8190 279° West 496 571 34,000  Level FlightAware ADS-B
Tue 09:15:05 PM 58.5820 -150.9520 279° West 496 571 34,000  Level FlightAware ADS-B
Tue 09:15:48 PM 58.5950 -151.1110 279° West 496 571 34,000  Level FlightAware ADS-B
Tue 09:16:35 PM 58.6180 -151.3890 279° West 497 572 34,000  Level FlightAware ADS-B
Tue 09:17:11 PM 58.6300 -151.5460 278° West 498 573 34,000  Level FlightAware ADS-B
Tue 09:17:55 PM 58.6440 -151.7380 278° West 499 574 34,000  Level FlightAware ADS-B
Tue 09:18:39 PM 58.6590 -151.9300 279° West 499 574 34,000  Level FlightAware ADS-B
Tue 09:19:49 PM 58.6790 -152.2210 278° West 499 574 34,000  Level FlightAware ADS-B
Tue 09:20:26 PM 58.6880 -152.3590 277° West 499 574 34,000  Level FlightAware ADS-B
Tue 09:21:16 PM 58.7000 -152.5470 277° West 499 574 34,000  Level FlightAware ADS-B
Tue 09:21:52 PM 58.7080 -152.6820 277° West 499 574 34,000  Level FlightAware ADS-B
Tue 09:22:29 PM 58.7170 -152.8200 277° West 499 574 34,000  Level FlightAware ADS-B
Tue 09:23:15 PM 58.7280 -152.9930 277° West 499 574 34,000  Level FlightAware ADS-B
Tue 09:24:03 PM 58.7400 -153.1730 277° West 499 574 34,000  Level FlightAware ADS-B
Tue 09:24:41 PM 58.7490 -153.3160 277° West 499 574 34,000  Level FlightAware ADS-B
Tue 09:25:35 PM 58.7620 -153.5190 277° West 499 574 34,000  Level FlightAware ADS-B
Tue 09:26:38 PM 58.7770 -153.7550 277° West 499 574 34,000  Level FlightAware ADS-B
Tue 09:27:12 PM 58.7850 -153.8830 277° West 499 574 34,000  Level FlightAware ADS-B
Tue 09:28:01 PM 58.7960 -154.0670 277° West 499 574 34,000  Level FlightAware ADS-B
Tue 09:28:38 PM 58.8050 -154.2060 277° West 499 574 34,000  Level FlightAware ADS-B
Tue 09:29:47 PM 58.8333 -154.8000 277° West 500 575 34,000  Level Anchorage Center
Tue 09:30:47 PM 58.8500 -155.0667 277° West 490 564 34,000  Level Anchorage Center
Tue 09:31:48 PM 58.8500 -155.3333 270° West 500 575 34,000  Level Anchorage Center
Tue 09:32:48 PM 58.8667 -155.6167 277° West 500 575 34,000  Level Anchorage Center
Tue 09:33:48 PM 58.8833 -155.8833 277° West 500 575 34,000  Level Anchorage Center
Tue 09:34:48 PM 58.8833 -156.1500 270° West 500 575 34,000  Level Anchorage Center
Tue 09:35:49 PM 58.9000 -156.4333 277° West 510 587 34,000  Level Anchorage Center
Tue 09:36:49 PM 58.9167 -156.7000 277° West 500 575 34,000  Level Anchorage Center
Tue 09:37:49 PM 58.9167 -156.9667 270° West 510 587 34,000  Level Anchorage Center
Tue 09:38:50 PM 58.9333 -157.2500 277° West 500 575 34,000  Level Anchorage Center
Tue 09:39:50 PM 58.9500 -157.5167 277° West 500 575 34,000  Level Anchorage Center
Tue 09:40:50 PM 58.9500 -157.8000 270° West 510 587 34,000  Level Anchorage Center
Tue 09:41:51 PM 58.9500 -158.0833 270° West 510 587 34,000  Level Anchorage Center
Tue 09:42:51 PM 58.9667 -158.3500 277° West 500 575 34,000  Level Anchorage Center
Tue 09:43:51 PM 58.9667 -158.6833 270° West 510 587 34,000  Level Anchorage Center
Tue 09:44:52 PM 58.9833 -158.9667 277° West 510 587 34,000  Level Anchorage Center
Tue 09:45:52 PM 58.9833 -159.2333 270° West 510 587 34,000  Level Anchorage Center
Tue 09:46:52 PM 58.9833 -159.5167 270° West 510 587 34,000  Level Anchorage Center
Tue 09:47:53 PM 58.9833 -159.8000 270° West 510 587 34,000  Level Anchorage Center
Tue 09:48:53 PM 59.0000 -160.0667 277° West 520 598 34,000  Level Anchorage Center
Tue 09:49:54 PM 59.0000 -160.3500 270° West 510 587 34,000  Level Anchorage Center
Tue 09:50:54 PM 59.0000 -160.6333 270° West 520 598 34,000  Level Anchorage Center
Tue 09:51:54 PM 59.0000 -160.9167 270° West 520 598 34,000  Level Anchorage Center
Tue 09:52:55 PM 59.0000 -161.1833 270° West 510 587 34,000  Level Anchorage Center
Tue 09:53:55 PM 59.0000 -161.4667 270° West 510 587 34,000  Level Anchorage Center
Tue 09:54:55 PM 58.9833 -161.7500 264° West 510 587 34,000  Level Anchorage Center
Tue 09:55:56 PM 58.9833 -162.0167 270° West 510 587 34,000  Level Anchorage Center
Tue 09:56:56 PM 58.9833 -162.3000 270° West 510 587 34,000  Level Anchorage Center
Tue 09:57:56 PM 58.9833 -162.5667 270° West 510 587 34,000  Level Anchorage Center
Tue 09:58:56 PM 58.9833 -162.8500 270° West 500 575 34,000  Level Anchorage Center
Tue 09:59:57 PM 58.9667 -163.1167 263° West 510 587 34,000  Level Anchorage Center
Tue 10:00:57 PM 58.9667 -163.3833 270° West 500 575 34,000  Level Anchorage Center
Tue 10:01:57 PM 58.9667 -163.6667 270° West 500 575 34,000  Level Anchorage Center
Tue 10:02:58 PM 58.9500 -163.9333 263° West 490 564 34,000  Level Anchorage Center
Tue 10:05:09 PM 58.9333 -164.5167 267° West 490 564 34,000  Level Anchorage Center
Tue 10:06:09 PM 58.9333 -164.7833 270° West 490 564 34,000  Level Anchorage Center
Tue 10:07:09 PM 58.9167 -165.0500 263° West 490 564 34,000  Level Anchorage Center
Tue 10:08:09 PM 58.9167 -165.3167 270° West 490 564 34,000  Level Anchorage Center
Tue 10:09:09 PM 58.9000 -165.5833 263° West 500 575 34,000  Level Anchorage Center
Tue 10:10:09 PM 58.9000 -165.8500 270° West 500 575 34,000  Level Anchorage Center
Tue 10:11:09 PM 58.8833 -166.1167 263° West 480 552 34,000  Level Anchorage Center
Tue 10:12:09 PM 58.8500 -166.3833 257° West 490 564 34,000  Level Anchorage Center
Tue 10:13:09 PM 58.8167 -166.6333 256° West 490 564 34,000  Level Anchorage Center
Tue 10:14:09 PM 58.7833 -166.9000 257° West 490 564 34,000  Level Anchorage Center
Tue 10:15:09 PM 58.7500 -167.1500 256° West 490 564 34,000  Level Anchorage Center
Tue 10:16:10 PM 58.7333 -167.4167 263° West 490 564 34,000  Level Anchorage Center
Tue 10:17:09 PM 58.7000 -167.6667 256° West 490 564 34,000  Level Anchorage Center
Tue 10:18:09 PM 58.6667 -167.9333 257° West 490 564 34,000  Level Anchorage Center
Tue 10:19:09 PM 58.6333 -168.1833 256° West 480 552 34,000  Level Anchorage Center
Tue 10:20:09 PM 58.6000 -168.4333 256° West 480 552 34,000  Level Anchorage Center
Tue 10:21:10 PM 58.5667 -168.6833 256° West 480 552 34,000  Level Anchorage Center
Tue 10:22:10 PM 58.5500 -168.9333 263° West 480 552 34,000  Level Anchorage Center
Tue 10:23:10 PM 58.5167 -169.1833 256° West 480 552 34,000  Level Anchorage Center
Tue 10:24:10 PM 58.4833 -169.4333 256° West 480 552 34,000  Level Anchorage Center
Tue 10:25:10 PM 58.4500 -169.6833 256° West 490 564 34,000  Level Anchorage Center
Tue 10:26:10 PM 58.4167 -169.9333 256° West 480 552 34,000  Level Anchorage Center
Tue 10:27:10 PM 58.3833 -170.1833 256° West 480 552 34,000  Level Anchorage Center
Tue 10:28:10 PM 58.3333 -170.4333 249° West 480 552 34,000  Level Anchorage Center
Tue 10:29:10 PM 58.3000 -170.6833 256° West 480 552 34,000  Level Anchorage Center
Tue 10:30:10 PM 58.2667 -170.9167 255° West 470 541 34,000  Level Anchorage Center
Tue 10:31:10 PM 58.2333 -171.1667 256° West 470 541 34,000  Level Anchorage Center
Tue 10:32:10 PM 58.2000 -171.4000 255° West 470 541 34,000  Level Anchorage Center
Tue 10:33:11 PM 58.1667 -171.6500 256° West 480 552 34,000  Level Anchorage Center
Tue 10:34:10 PM 58.1333 -171.8833 255° West 470 541 34,000  Level Anchorage Center
Tue 10:35:10 PM 58.0833 -172.1167 248° West 470 541 34,000  Level Anchorage Center
Tue 10:36:11 PM 58.0500 -172.3667 256° West 470 541 34,000  Level Anchorage Center
Tue 10:37:11 PM 58.0167 -172.6000 255° West 480 552 34,000  Level Anchorage Center
Tue 10:38:10 PM 57.9667 -172.8500 249° West 470 541 34,000  Level Anchorage Center
Tue 10:39:11 PM 57.9333 -173.0833 255° West 480 552 34,000  Level Anchorage Center
Tue 10:40:11 PM 57.9000 -173.3167 255° West 470 541 34,000  Level Anchorage Center
Tue 10:41:11 PM 57.8500 -173.5500 248° West 470 541 34,000  Level Anchorage Center
Tue 10:42:11 PM 57.8167 -173.8000 256° West 480 552 34,000  Level Anchorage Center
Tue 10:43:11 PM 57.7667 -174.0333 248° West 480 552 34,000  Level Anchorage Center
Tue 10:44:11 PM 57.7333 -174.2667 255° West 480 552 34,000  Level Anchorage Center
Tue 10:45:11 PM 57.6833 -174.5000 248° West 480 552 34,000  Level Anchorage Center
Tue 10:46:11 PM 57.6500 -174.7333 255° West 470 541 34,000  Level Anchorage Center
Tue 10:47:11 PM 57.6000 -174.9833 250° West 470 541 34,000  Level Anchorage Center
Tue 10:48:11 PM 57.5500 -175.2167 248° West 480 552 34,000  Level Anchorage Center
Tue 10:49:11 PM 57.5167 -175.4333 254° West 470 541 34,000  Level Anchorage Center
Tue 10:50:12 PM 57.4667 -175.6667 248° West 470 541 34,000  Level Anchorage Center
Tue 10:53:00 PM 57.3869 -176.0830 251° West  Level FlightAware Approximate
Tue 11:00:00 PM 57.0639 -177.6848 250° West  Level FlightAware Approximate
Tue 11:01:00 PM 57.0160 -177.9113 249° West  Level FlightAware Approximate
Tue 11:02:00 PM 56.9678 -178.1373 249° West  Level FlightAware Approximate
Tue 11:03:00 PM 56.9192 -178.3626 249° West  Level FlightAware Approximate
Tue 11:04:00 PM 56.8702 -178.5874 248° West  Level FlightAware Approximate
Tue 11:05:00 PM 56.8208 -178.8115 248° West  Level FlightAware Approximate
Tue 11:06:00 PM 56.7709 -179.0351 248° West  Level FlightAware Approximate
Tue 11:07:00 PM 56.7207 -179.2581 248° West  Level FlightAware Approximate
Tue 11:08:00 PM 56.6701 -179.4805 248° West  Level FlightAware Approximate
Tue 11:09:00 PM 56.6191 -179.7023 247° West  Level FlightAware Approximate
Tue 11:10:00 PM 56.5677 -179.9234 247° West  Level FlightAware Approximate
Tue 11:11:00 PM 56.5159 179.8560 247° West  Level FlightAware Approximate
Tue 11:12:00 PM 56.4637 179.6360 247° West  Level FlightAware Approximate
Tue 11:13:00 PM 56.4111 179.4167 247° West  Level FlightAware Approximate
Tue 11:14:00 PM 56.3581 179.1979 246° West  Level FlightAware Approximate
Tue 11:15:00 PM 56.3048 178.9797 246° West  Level FlightAware Approximate
Tue 11:16:00 PM 56.2511 178.7622 246° West  Level FlightAware Approximate
Tue 11:17:00 PM 56.1969 178.5453 246° West  Level FlightAware Approximate
Tue 11:18:00 PM 56.1425 178.3289 246° West  Level FlightAware Approximate
Tue 11:19:00 PM 56.0878 178.1141 246° West  Level FlightAware Approximate
Tue 11:20:00 PM 56.0301 177.9030 241° Southwest  Level FlightAware Approximate
Tue 11:21:00 PM 55.9655 177.6977 241° Southwest  Level FlightAware Approximate
Tue 11:22:00 PM 55.9007 177.4931 241° Southwest  Level FlightAware Approximate
Tue 11:23:00 PM 55.8354 177.2892 240° Southwest  Level FlightAware Approximate
Tue 11:24:00 PM 55.7699 177.0860 240° Southwest  Level FlightAware Approximate
Tue 11:24:18 PM 55.7333 176.9667 239° Southwest 470 541 34,000  Level Anchorage Center
Tue 11:25:00 PM 55.7040 176.8835 240° Southwest  Level FlightAware Approximate
Tue 11:25:19 PM 55.6667 176.7833 237° Southwest 460 529 34,000  Level Anchorage Center
Tue 11:26:00 PM 55.6378 176.6816 240° Southwest  Level FlightAware Approximate
Tue 11:26:19 PM 55.6000 176.5667 241° Southwest 470 541 34,000  Level Anchorage Center
Tue 11:27:00 PM 55.5712 176.4805 240° Southwest  Level FlightAware Approximate
Tue 11:27:19 PM 55.5333 176.4000 235° Southwest 470 541 34,000  Level Anchorage Center
Tue 11:28:00 PM 55.5044 176.2800 240° Southwest  Level FlightAware Approximate
Tue 11:28:19 PM 55.4667 176.1833 242° Southwest 470 541 34,000  Level Anchorage Center
Tue 11:29:00 PM 55.4372 176.0802 239° Southwest  Level FlightAware Approximate
Tue 11:29:19 PM 55.4167 176.0000 244° Southwest 470 541 34,000  Level Anchorage Center
Tue 11:30:19 PM 55.3333 175.7833 236° Southwest 470 541 34,000  Level Anchorage Center
Tue 11:31:19 PM 55.2667 175.5833 240° Southwest 470 541 34,000  Level Anchorage Center
Tue 11:32:19 PM 55.2000 175.4000 238° Southwest 470 541 34,000  Level Anchorage Center
Tue 11:33:19 PM 55.1333 175.2000 240° Southwest 470 541 34,000  Level Anchorage Center
Tue 11:34:19 PM 55.0667 175.0167 238° Southwest 470 541 34,000 350 Level Anchorage Center
Tue 11:35:19 PM 55.0000 174.8167 240° Southwest 470 541 34,700 500 Climbing Anchorage Center
Tue 11:36:19 PM 54.9333 174.6500 235° Southwest 470 541 35,000 150 Climbing Anchorage Center
Tue 11:37:19 PM 54.8667 174.4333 242° Southwest 470 541 35,000  Level Anchorage Center
Tue 11:38:19 PM 54.8000 174.2667 235° Southwest 470 541 35,000  Level Anchorage Center
Tue 11:39:19 PM 54.7167 174.0500 236° Southwest 480 552 35,000  Level Anchorage Center
Tue 11:40:19 PM 54.6500 173.8500 240° Southwest 470 541 35,000  Level Anchorage Center
Tue 11:41:19 PM 54.5833 173.6833 235° Southwest 480 552 35,000  Level Anchorage Center
Tue 11:42:19 PM 54.5000 173.4667 237° Southwest 470 541 35,000  Level Anchorage Center
Tue 11:43:20 PM 54.4333 173.3167 233° Southwest 470 541 35,000  Level Anchorage Center
Tue 11:44:20 PM 54.3667 173.1000 242° Southwest 480 552 35,000  Level Anchorage Center
Tue 11:45:20 PM 54.3000 172.9333 236° Southwest 480 552 35,000  Level Anchorage Center
Tue 11:46:20 PM 54.2167 172.7500 232° Southwest 460 529 35,000  Level Anchorage Center
Tue 11:47:20 PM 54.1500 172.5500 240° Southwest 470 541 35,000  Level Anchorage Center
Tue 11:48:20 PM 54.0833 172.3833 236° Southwest 470 541 35,000  Level Anchorage Center
Tue 11:49:20 PM 54.0000 172.1833 235° Southwest 460 529 35,000  Level Anchorage Center
Tue 11:50:20 PM 53.9333 172.0333 233° Southwest 460 529 35,000  Level Anchorage Center
Tue 11:51:20 PM 53.8500 171.8333 235° Southwest 450 518 35,000  Level Anchorage Center
Tue 11:52:21 PM 53.7833 171.6833 233° Southwest 470 541 35,000  Level Anchorage Center
Tue 11:53:20 PM 53.7000 171.5000 233° Southwest 450 518 35,000  Level Anchorage Center
Tue 11:54:20 PM 53.6167 171.3000 235° Southwest 470 541 35,000  Level Anchorage Center
Tue 11:55:20 PM 53.5500 171.1500 233° Southwest 460 529 35,000  Level Anchorage Center
Tue 11:56:21 PM 53.4667 170.9500 235° Southwest 470 541 35,000  Level Anchorage Center
Tue 11:57:20 PM 53.4000 170.8167 230° Southwest 460 529 35,000  Level Anchorage Center
Tue 11:58:20 PM 53.3167 170.6167 235° Southwest 450 518 35,000  Level Anchorage Center
Tue 11:59:21 PM 53.2500 170.4667 233° Southwest 460 529 35,000  Level Anchorage Center
Wed 12:00:21 AM 53.1833 170.2833 239° Southwest 450 518 35,000  Level Anchorage Center
Wed 12:01:21 AM 53.1000 170.1000 233° Southwest 450 518 35,000  Level Anchorage Center
Wed 12:02:21 AM 53.0333 169.9667 230° Southwest 470 541 35,000  Level Anchorage Center
Wed 12:03:21 AM 52.9500 169.7667 235° Southwest 470 541 35,000  Level Anchorage Center
Wed 12:04:21 AM 52.9000 169.6167 241° Southwest 450 518 35,000  Level Anchorage Center
Wed 12:05:21 AM 52.8333 169.4167 241° Southwest 440 506 35,000  Level Anchorage Center
Wed 12:06:21 AM 52.7833 169.2667 241° Southwest 450 518 35,000  Level Anchorage Center
Wed 12:07:21 AM 52.7167 169.0667 241° Southwest 450 518 35,000 200 Level Anchorage Center
Wed 12:08:21 AM 52.6667 168.9167 241° Southwest 440 506 35,400 500 Climbing Anchorage Center
Wed 12:09:21 AM 52.6000 168.7167 241° Southwest 470 541 36,000 298 Climbing Anchorage Center
Wed 12:10:22 AM 52.5167 168.5167 236° Southwest 460 529 36,000  Level Anchorage Center
Wed 12:11:22 AM 52.4667 168.3667 241° Southwest 460 529 36,000  Level Anchorage Center
Wed 12:12:21 AM 52.4000 168.1667 241° Southwest 470 541 36,000  Level Anchorage Center
Wed 12:13:21 AM 52.3333 168.0000 237° Southwest 460 529 36,000  Level Anchorage Center
Wed 12:14:22 AM 52.2667 167.8000 241° Southwest 460 529 36,000  Level Anchorage Center
Wed 12:15:22 AM 52.2167 167.6500 241° Southwest 470 541 36,000  Level Anchorage Center
Wed 12:16:22 AM 52.1500 167.5000 234° Southwest 470 541 36,000 18 Level Anchorage Center
Wed 12:18:00 AM 52.0494 167.1837 243° Southwest  Level FlightAware Approximate
Wed 12:25:00 AM 51.5544 165.8952 238° Southwest  Level FlightAware Approximate
Wed 12:26:00 AM 51.4822 165.7138 237° Southwest  Level FlightAware Approximate
Wed 12:27:00 AM 51.4100 165.5327 238° Southwest  Level FlightAware Approximate
Wed 12:28:00 AM 51.3394 165.3504 238° Southwest  Level FlightAware Approximate
Wed 12:29:00 AM 51.2686 165.1685 238° Southwest  Level FlightAware Approximate
Wed 12:30:00 AM 51.1974 164.9873 238° Southwest  Level FlightAware Approximate
Wed 12:31:00 AM 51.1260 164.8066 238° Southwest  Level FlightAware Approximate
Wed 12:32:00 AM 51.0543 164.6264 238° Southwest  Level FlightAware Approximate
Wed 12:33:00 AM 50.9823 164.4468 238° Southwest  Level FlightAware Approximate
Wed 12:34:00 AM 50.9094 164.2685 237° Southwest  Level FlightAware Approximate
Wed 12:35:00 AM 50.8357 164.0912 237° Southwest  Level FlightAware Approximate
Wed 12:36:00 AM 50.7618 163.9145 237° Southwest  Level FlightAware Approximate
Wed 12:37:00 AM 50.6876 163.7383 236° Southwest  Level FlightAware Approximate
Wed 12:38:00 AM 50.6131 163.5627 236° Southwest  Level FlightAware Approximate
Wed 12:39:00 AM 50.5383 163.3877 236° Southwest  Level FlightAware Approximate
Wed 12:40:00 AM 50.4633 163.2132 236° Southwest  Level FlightAware Approximate
Wed 12:41:00 AM 50.3881 163.0392 236° Southwest  Level FlightAware Approximate
Wed 12:42:00 AM 50.3126 162.8658 236° Southwest  Level FlightAware Approximate
Wed 12:43:00 AM 50.2368 162.6930 236° Southwest  Level FlightAware Approximate
Wed 12:44:00 AM 50.1608 162.5207 235° Southwest  Level FlightAware Approximate
Wed 12:45:00 AM 50.0845 162.3490 235° Southwest  Level FlightAware Approximate
Wed 12:46:00 AM 50.0079 162.1778 235° Southwest  Level FlightAware Approximate
Wed 12:47:00 AM 49.9311 162.0071 235° Southwest  Level FlightAware Approximate
Wed 12:48:00 AM 49.8541 161.8370 235° Southwest  Level FlightAware Approximate
Wed 12:49:00 AM 49.7768 161.6675 235° Southwest  Level FlightAware Approximate
Wed 12:50:00 AM 49.6993 161.4984 235° Southwest  Level FlightAware Approximate
Wed 12:51:00 AM 49.6215 161.3300 235° Southwest  Level FlightAware Approximate
Wed 12:52:00 AM 49.5435 161.1620 234° Southwest  Level FlightAware Approximate
Wed 12:53:00 AM 49.4650 160.9948 234° Southwest  Level FlightAware Approximate
Wed 12:54:00 AM 49.3859 160.8286 234° Southwest  Level FlightAware Approximate
Wed 12:55:00 AM 49.3065 160.6631 234° Southwest  Level FlightAware Approximate
Wed 12:56:00 AM 49.2268 160.4980 234° Southwest  Level FlightAware Approximate
Wed 12:57:00 AM 49.1483 160.3362 233° Southwest  Level FlightAware Approximate
Wed 12:58:00 AM 49.0697 160.1753 233° Southwest  Level FlightAware Approximate
Wed 12:59:00 AM 48.9873 160.0207 213° Southwest  Level FlightAware Approximate
Wed 01:00:00 AM 48.9140 159.8589 233° Southwest  Level FlightAware Approximate
Wed 01:01:00 AM 48.8350 159.6992 233° Southwest  Level FlightAware Approximate
Wed 01:02:00 AM 48.7558 159.5399 233° Southwest  Level FlightAware Approximate
Wed 01:03:00 AM 48.6764 159.3812 233° Southwest  Level FlightAware Approximate
Wed 01:04:00 AM 48.5966 159.2226 233° Southwest  Level FlightAware Approximate
Wed 01:05:00 AM 48.5166 159.0646 233° Southwest  Level FlightAware Approximate
Wed 01:06:00 AM 48.4363 158.9068 233° Southwest  Level FlightAware Approximate
Wed 01:07:00 AM 48.3558 158.7495 232° Southwest  Level FlightAware Approximate
Wed 01:08:00 AM 48.2750 158.5928 232° Southwest  Level FlightAware Approximate
Wed 01:09:00 AM 48.1941 158.4365 232° Southwest  Level FlightAware Approximate
Wed 01:10:00 AM 48.1129 158.2807 232° Southwest  Level FlightAware Approximate
Wed 01:11:00 AM 48.0315 158.1254 232° Southwest  Level FlightAware Approximate
Wed 01:12:00 AM 47.9499 157.9706 232° Southwest  Level FlightAware Approximate
Wed 01:13:00 AM 47.8681 157.8163 232° Southwest  Level FlightAware Approximate
Wed 01:14:00 AM 47.7861 157.6625 232° Southwest  Level FlightAware Approximate
Wed 01:15:00 AM 47.7039 157.5092 231° Southwest  Level FlightAware Approximate
Wed 01:16:00 AM 47.6215 157.3563 231° Southwest  Level FlightAware Approximate
Wed 01:17:00 AM 47.5388 157.2040 231° Southwest  Level FlightAware Approximate
Wed 01:18:00 AM 47.4560 157.0521 231° Southwest  Level FlightAware Approximate
Wed 01:19:00 AM 47.3730 156.9007 231° Southwest  Level FlightAware Approximate
Wed 01:20:00 AM 47.2898 156.7497 231° Southwest  Level FlightAware Approximate
Wed 01:21:00 AM 47.2064 156.5993 231° Southwest  Level FlightAware Approximate
Wed 01:22:00 AM 47.1227 156.4493 231° Southwest  Level FlightAware Approximate
Wed 01:23:00 AM 47.0389 156.2998 231° Southwest  Level FlightAware Approximate
Wed 01:24:00 AM 46.9549 156.1507 230° Southwest  Level FlightAware Approximate
Wed 01:25:00 AM 46.8708 156.0021 230° Southwest  Level FlightAware Approximate
Wed 01:26:00 AM 46.7864 155.8540 230° Southwest  Level FlightAware Approximate
Wed 01:27:00 AM 46.7018 155.7064 230° Southwest  Level FlightAware Approximate
Wed 01:28:00 AM 46.6170 155.5592 230° Southwest  Level FlightAware Approximate
Wed 01:29:00 AM 46.5321 155.4125 230° Southwest  Level FlightAware Approximate
Wed 01:30:00 AM 46.4469 155.2662 230° Southwest  Level FlightAware Approximate
Wed 01:31:00 AM 46.3616 155.1204 230° Southwest  Level FlightAware Approximate
Wed 01:32:00 AM 46.2761 154.9750 230° Southwest  Level FlightAware Approximate
Wed 01:33:00 AM 46.1904 154.8301 230° Southwest  Level FlightAware Approximate
Wed 01:34:00 AM 46.1045 154.6857 229° Southwest  Level FlightAware Approximate
Wed 01:35:00 AM 46.0185 154.5417 229° Southwest  Level FlightAware Approximate
Wed 01:36:00 AM 45.9322 154.3981 229° Southwest  Level FlightAware Approximate
Wed 01:37:00 AM 45.8458 154.2550 229° Southwest  Level FlightAware Approximate
Wed 01:38:00 AM 45.7592 154.1124 229° Southwest  Level FlightAware Approximate
Wed 01:39:00 AM 45.6724 153.9701 229° Southwest  Level FlightAware Approximate
Wed 01:40:00 AM 45.5855 153.8284 229° Southwest  Level FlightAware Approximate
Wed 01:41:00 AM 45.4983 153.6871 228° Southwest  Level FlightAware Approximate
Wed 01:42:00 AM 45.4106 153.5468 228° Southwest  Level FlightAware Approximate
Wed 01:43:00 AM 45.3227 153.4068 228° Southwest  Level FlightAware Approximate
Wed 01:44:00 AM 45.2347 153.2673 228° Southwest  Level FlightAware Approximate
Wed 01:45:00 AM 45.1465 153.1282 228° Southwest  Level FlightAware Approximate
Wed 01:46:00 AM 45.0581 152.9895 228° Southwest  Level FlightAware Approximate
Wed 01:47:00 AM 44.9696 152.8513 228° Southwest  Level FlightAware Approximate
Wed 01:48:00 AM 44.8813 152.7142 228° Southwest  Level FlightAware Approximate
Wed 01:49:00 AM 44.7929 152.5775 228° Southwest  Level FlightAware Approximate
Wed 01:50:00 AM 44.7043 152.4412 228° Southwest  Level FlightAware Approximate
Wed 01:51:00 AM 44.6155 152.3054 227° Southwest  Level FlightAware Approximate
Wed 01:52:00 AM 44.5266 152.1699 227° Southwest  Level FlightAware Approximate
Wed 01:53:00 AM 44.4376 152.0349 227° Southwest  Level FlightAware Approximate
Wed 01:54:00 AM 44.3483 151.9003 227° Southwest  Level FlightAware Approximate
Wed 01:55:00 AM 44.2590 151.7661 227° Southwest  Level FlightAware Approximate
Wed 01:56:00 AM 44.1694 151.6323 227° Southwest  Level FlightAware Approximate
Wed 01:57:00 AM 44.0797 151.4989 227° Southwest  Level FlightAware Approximate
Wed 01:58:00 AM 43.9899 151.3659 227° Southwest  Level FlightAware Approximate
Wed 01:59:00 AM 43.8999 151.2334 227° Southwest  Level FlightAware Approximate
Wed 02:00:00 AM 43.8097 151.1012 227° Southwest  Level FlightAware Approximate
Wed 02:01:00 AM 43.7194 150.9694 227° Southwest  Level FlightAware Approximate
Wed 02:02:00 AM 43.6289 150.8380 226° Southwest  Level FlightAware Approximate
Wed 02:03:00 AM 43.5383 150.7070 226° Southwest  Level FlightAware Approximate
Wed 02:04:00 AM 43.4476 150.5764 226° Southwest  Level FlightAware Approximate
Wed 02:05:00 AM 43.3567 150.4462 226° Southwest  Level FlightAware Approximate
Wed 02:06:00 AM 43.2656 150.3164 226° Southwest  Level FlightAware Approximate
Wed 02:07:00 AM 43.1744 150.1870 226° Southwest  Level FlightAware Approximate
Wed 02:08:00 AM 43.0831 150.0579 226° Southwest  Level FlightAware Approximate
Wed 02:08:43 AM 43.0790 150.0430 226° Southwest 513 590 38,000  Level FlightAware ADS-B
Wed 02:09:00 AM 42.9916 149.9293 226° Southwest  Level FlightAware Approximate
Wed 02:09:29 AM 43.0000 149.9310 226° Southwest 512 589 38,000  Level FlightAware ADS-B
Wed 02:10:09 AM 42.9390 149.8440 226° Southwest 510 587 38,000  Level FlightAware ADS-B
Wed 02:10:48 AM 42.8720 149.7520 225° Southwest 510 587 38,000  Level FlightAware ADS-B
Wed 02:11:32 AM 42.8040 149.6570 226° Southwest 508 585 38,000  Level FlightAware ADS-B
Wed 02:12:08 AM 42.7370 149.5650 225° Southwest 509 586 38,000  Level FlightAware ADS-B
Wed 02:12:53 AM 42.6600 149.4590 225° Southwest 508 585 38,000  Level FlightAware ADS-B
Wed 02:13:33 AM 42.5950 149.3690 226° Southwest 509 586 38,000  Level FlightAware ADS-B
Wed 02:14:17 AM 42.5260 149.2750 225° Southwest 510 587 38,000  Level FlightAware ADS-B
Wed 02:14:58 AM 42.4490 149.1690 225° Southwest 512 589 38,000  Level FlightAware ADS-B
Wed 02:15:58 AM 42.3480 149.0330 225° Southwest 514 592 38,000  Level FlightAware ADS-B
Wed 02:16:38 AM 42.2870 148.9500 225° Southwest 521 600 38,000  Level FlightAware ADS-B
Wed 02:17:23 AM 42.2020 148.8350 225° Southwest 521 600 38,000  Level FlightAware ADS-B
Wed 02:18:03 AM 42.1340 148.7430 225° Southwest 520 598 38,000  Level FlightAware ADS-B
Wed 02:18:43 AM 42.0670 148.6520 225° Southwest 519 597 38,000  Level FlightAware ADS-B
Wed 02:19:29 AM 41.9900 148.5500 225° Southwest 519 597 38,000  Level FlightAware ADS-B
Wed 02:20:08 AM 41.9210 148.4590 224° Southwest 518 596 38,000  Level FlightAware ADS-B
Wed 02:20:48 AM 41.8540 148.3690 225° Southwest 519 597 38,000  Level FlightAware ADS-B
Wed 02:21:28 AM 41.7850 148.2790 224° Southwest 519 597 38,000  Level FlightAware ADS-B
Wed 02:22:08 AM 41.7170 148.1880 225° Southwest 518 596 38,000  Level FlightAware ADS-B
Wed 02:22:53 AM 41.6400 148.0880 224° Southwest 519 597 38,000  Level FlightAware ADS-B
Wed 02:23:33 AM 41.5700 148.0000 223° Southwest 517 595 38,000  Level FlightAware ADS-B
Wed 02:24:13 AM 41.5010 147.9110 224° Southwest 517 595 38,000  Level FlightAware ADS-B
Wed 02:24:53 AM 41.4320 147.8230 224° Southwest 517 595 38,000  Level FlightAware ADS-B
Wed 02:25:53 AM 41.3310 147.6930 224° Southwest 518 596 38,000  Level FlightAware ADS-B
Wed 02:26:33 AM 41.2600 147.6050 223° Southwest 517 595 38,000  Level FlightAware ADS-B
Wed 02:27:18 AM 41.1860 147.5100 224° Southwest 512 589 38,000  Level FlightAware ADS-B
Wed 02:27:58 AM 41.1110 147.4160 223° Southwest 517 595 38,000  Level FlightAware ADS-B
Wed 02:28:43 AM 41.0340 147.3180 224° Southwest 510 587 38,000  Level FlightAware ADS-B
Wed 02:29:18 AM 40.9730 147.2420 223° Southwest 515 593 38,000  Level FlightAware ADS-B
Wed 02:30:08 AM 40.8860 147.1340 223° Southwest 510 587 38,000  Level FlightAware ADS-B
Wed 02:30:48 AM 40.8160 147.0470 223° Southwest 509 586 38,000  Level FlightAware ADS-B
Wed 02:31:28 AM 40.7470 146.9610 223° Southwest 509 586 38,000  Level FlightAware ADS-B
Wed 02:32:13 AM 40.6690 146.8640 223° Southwest 509 586 38,000  Level FlightAware ADS-B
Wed 02:32:53 AM 40.6000 146.7780 223° Southwest 509 586 38,000  Level FlightAware ADS-B
Wed 02:33:50 AM 40.5010 146.6590 222° Southwest 510 587 38,000  Level FlightAware ADS-B
Wed 02:34:28 AM 40.4330 146.5750 223° Southwest 510 587 38,000  Level FlightAware ADS-B
Wed 02:35:08 AM 40.3630 146.4900 223° Southwest 510 587 38,000  Level FlightAware ADS-B
Wed 02:35:54 AM 40.2880 146.3980 223° Southwest 511 588 38,000  Level FlightAware ADS-B
Wed 02:36:34 AM 40.2140 146.3070 223° Southwest 511 588 38,000  Level FlightAware ADS-B
Wed 02:37:14 AM 40.1420 146.2220 222° Southwest 511 588 38,000  Level FlightAware ADS-B
Wed 02:38:04 AM 40.0560 146.1180 223° Southwest 512 589 38,000  Level FlightAware ADS-B
Wed 02:38:54 AM 39.9770 146.0200 224° Southwest 512 589 38,000  Level FlightAware ADS-B
Wed 02:39:42 AM 39.9060 145.9340 223° Southwest 512 589 38,000  Level FlightAware ADS-B
Wed 02:40:25 AM 39.8190 145.8330 222° Southwest 512 589 38,000  Level FlightAware ADS-B
Wed 02:41:03 AM 39.7630 145.7650 223° Southwest 512 589 38,000  Level FlightAware ADS-B
Wed 02:42:06 AM 39.6710 145.6530 223° Southwest 512 589 38,000  Level FlightAware ADS-B
Wed 02:42:43 AM 39.6160 145.5870 223° Southwest 512 589 38,000  Level FlightAware ADS-B
Wed 02:43:31 AM 39.5450 145.5020 223° Southwest 512 589 38,000  Level FlightAware ADS-B
Wed 02:44:08 AM 39.4910 145.4360 223° Southwest 512 589 38,000  Level FlightAware ADS-B
Wed 02:44:47 AM 39.4340 145.3660 223° Southwest 512 589 38,000  Level FlightAware ADS-B
Wed 02:45:35 AM 39.3630 145.2810 223° Southwest 512 589 38,000  Level FlightAware ADS-B
Wed 02:46:11 AM 39.3100 145.2170 223° Southwest 512 589 38,000  Level FlightAware ADS-B
Wed 02:46:59 AM 39.2390 145.1320 223° Southwest 512 589 38,000  Level FlightAware ADS-B
Wed 02:47:35 AM 39.1860 145.0680 223° Southwest 512 589 38,000  Level FlightAware ADS-B
Wed 02:48:23 AM 39.1150 144.9830 223° Southwest 512 589 38,000  Level FlightAware ADS-B
Wed 02:48:59 AM 39.0620 144.9200 223° Southwest 512 589 38,000 -106 Level FlightAware ADS-B
Wed 02:51:00 AM 38.8556 144.7071 219° Southwest  Level FlightAware Approximate
Wed 02:52:00 AM 38.7547 144.5985 222° Southwest  Level FlightAware Approximate
Wed 02:53:00 AM 38.6565 144.4871 222° Southwest  Level FlightAware Approximate
Wed 02:54:00 AM 38.5581 144.3760 221° Southwest  Level FlightAware Approximate
Wed 02:55:00 AM 38.4597 144.2652 221° Southwest  Level FlightAware Approximate
Wed 02:56:00 AM 38.3611 144.1546 221° Southwest  Level FlightAware Approximate
Wed 02:57:00 AM 38.2624 144.0444 221° Southwest  Level FlightAware Approximate
Wed 02:58:00 AM 38.1637 143.9345 221° Southwest  Level FlightAware Approximate
Wed 02:59:00 AM 38.0648 143.8249 221° Southwest  Level FlightAware Approximate
Wed 03:00:00 AM 37.9658 143.7156 221° Southwest  Level FlightAware Approximate
Wed 03:01:00 AM 37.8668 143.6066 221° Southwest  Level FlightAware Approximate
Wed 03:02:00 AM 37.7637 143.5044 212° Southwest  Level FlightAware Approximate
Wed 03:02:36 AM 37.4490 143.1300 212° Southwest 499 574 36,500  Level FlightAware ADS-B
Wed 03:03:16 AM 37.3760 143.0510 221° Southwest 499 574 35,700 -1,013 Descending FlightAware ADS-B
Wed 03:03:53 AM 37.3080 142.9960 213° Southwest 499 574 35,200 -698 Descending FlightAware ADS-B
Wed 03:04:42 AM 37.2080 142.9440 202° Southwest 488 562 34,700 -698 Descending FlightAware ADS-B
Wed 03:05:19 AM 37.1250 142.9030 201° Southwest 482 555 34,200 -640 Descending FlightAware ADS-B
Wed 03:05:57 AM 37.0480 142.8640 202° Southwest 466 536 33,900 -214 Descending FlightAware ADS-B
Wed 03:06:43 AM 36.9690 142.8250 202° Southwest 465 535 33,900 -1,259 Level FlightAware ADS-B
Wed 03:07:18 AM 36.8850 142.7830 202° Southwest 461 531 32,200 -1,357 Descending FlightAware ADS-B
Wed 03:08:07 AM 36.7960 142.7510 196° South 460 529 32,000 -522 Descending FlightAware ADS-B
Wed 03:10:00 AM 36.5881 142.5850 212° Southwest  Level FlightAware Approximate
Wed 03:11:00 AM 36.4769 142.4984 212° Southwest  Level FlightAware Approximate
Wed 03:11:31 AM 36.3890 142.7580 212° Southwest 417 480 30,000  Level FlightAware ADS-B
Wed 03:12:16 AM 36.3150 142.7550 182° South 418 481 30,000  Level FlightAware ADS-B
Wed 03:12:53 AM 36.2550 142.7520 182° South 418 481 30,000  Level FlightAware ADS-B
Wed 03:13:30 AM 36.1520 142.7490 181° South 417 480 30,000  Level FlightAware ADS-B
Wed 03:14:35 AM 36.0460 142.7440 182° South 417 480 30,000  Level FlightAware ADS-B
Wed 03:15:11 AM 35.9740 142.7390 183° South 417 480 30,000  Level FlightAware ADS-B
Wed 03:16:07 AM 35.8820 142.7330 183° South 417 480 30,000  Level FlightAware ADS-B
Wed 03:16:46 AM 35.7800 142.7270 183° South 420 483 30,000 -640 Level FlightAware ADS-B
Wed 03:17:22 AM 35.7030 142.7210 184° South 417 480 29,200 -759 Descending FlightAware ADS-B
Wed 03:18:05 AM 35.6260 142.6880 199° South 409 471 29,000 -145 Descending FlightAware ADS-B
Wed 03:18:45 AM 35.5640 142.6400 212° Southwest 411 473 29,000 -50 Level FlightAware ADS-B
Wed 03:20:05 AM 35.4920 142.4840 240° Southwest 421 484 28,900 -897 Descending FlightAware ADS-B
Wed 03:20:12 AM 35.4990 142.4490 284° West 419 482 27,700 -3,000 Descending FlightAware ADS-B
Wed 03:20:59 AM 35.5080 142.3440 276° West 413 475 26,200 -1,964 Descending FlightAware ADS-B
Wed 03:22:02 AM 35.5230 142.1950 277° West 406 467 24,100 -1,838 Descending FlightAware ADS-B
Wed 03:22:50 AM 35.5320 142.1020 277° West 375 432 22,800 -1,758 Descending FlightAware ADS-B
Wed 03:23:41 AM 35.5400 141.9860 275° West 373 429 21,200 -1,570 Descending FlightAware ADS-B
Wed 03:25:19 AM 35.5810 141.7880 284° West 360 414 18,900 -1,522 Descending FlightAware ADS-B
Wed 03:25:59 AM 35.6030 141.7120 290° West 364 419 17,700 -2,044 Descending FlightAware ADS-B
Wed 03:26:50 AM 35.6340 141.6080 290° West 380 437 15,800 -1,888 Descending FlightAware ADS-B
Wed 03:27:28 AM 35.6530 141.5420 290° West 376 433 14,900 -1,575 Descending FlightAware ADS-B
Wed 03:28:10 AM 35.6820 141.4430 290° West 371 427 13,700 -1,636 Descending FlightAware ADS-B
Wed 03:28:56 AM 35.7050 141.3640 290° West 368 423 12,500 -1,655 Descending FlightAware ADS-B
Wed 03:29:37 AM 35.7290 141.2820 290° West 362 417 11,300 -1,671 Descending FlightAware ADS-B
Wed 03:30:15 AM 35.7520 141.2030 290° West 354 407 10,300 -878 Descending FlightAware ADS-B
Wed 03:30:59 AM 35.7750 141.1230 290° West 313 360 10,100 -522 Descending FlightAware ADS-B
Wed 03:31:24 AM 35.7830 141.0820 284° West 309 356 9,700 -1,333 Descending FlightAware ADS-B
Wed 03:32:11 AM 35.7610 141.0050 251° West 298 343 8,500 -1,459 Descending FlightAware ADS-B
Wed 03:32:38 AM 35.7470 140.9620 248° West 295 339 7,900 -1,200 Descending FlightAware ADS-B
Wed 03:33:01 AM 35.7350 140.9250 248° West 289 333 7,500 -1,038 Descending FlightAware ADS-B
Wed 03:33:30 AM 35.7170 140.8850 241° Southwest 265 305 7,000 -915 Descending FlightAware ADS-B
Wed 03:34:00 AM 35.6980 140.8460 239° Southwest 246 283 6,600 -783 Descending FlightAware ADS-B
Wed 03:34:16 AM 35.6900 140.8280 241° Southwest 237 273 6,400 -783 Descending FlightAware ADS-B
Wed 03:34:46 AM 35.6760 140.7990 239° Southwest 232 267 6,000 -1,050 Descending FlightAware ADS-B
Wed 03:34:56 AM 35.6680 140.7830 238° Southwest 230 265 5,700 -1,029 Descending FlightAware ADS-B
Wed 03:35:21 AM 35.6590 140.7650 238° Southwest 234 269 5,400 -1,179 Descending FlightAware ADS-B
Wed 03:35:52 AM 35.6370 140.7210 238° Southwest 228 262 4,600 -1,424 Descending FlightAware ADS-B
Wed 03:36:20 AM 35.6200 140.6880 238° Southwest 227 261 4,000 -1,200 Descending FlightAware ADS-B
Wed 03:36:47 AM 35.6070 140.6640 236° Southwest 226 260 3,500 -1,034 Descending FlightAware ADS-B
Wed 03:37:18 AM 35.5870 140.6240 238° Southwest 219 252 3,000 -652 Descending FlightAware ADS-B
Wed 03:37:33 AM 35.5790 140.6090 237° Southwest 206 237 3,000  Level FlightAware ADS-B
Wed 03:37:49 AM 35.5770 140.5930 261° West 203 234 3,000  Level FlightAware ADS-B
Wed 03:38:44 AM 35.5920 140.5340 287° West 194 223 3,000  Level FlightAware ADS-B
Wed 03:39:21 AM 35.6200 140.5120 327° Northwest 191 220 3,000  Level FlightAware ADS-B
Wed 03:39:37 AM 35.6320 140.5040 332° Northwest 189 217 3,000  Level FlightAware ADS-B
Wed 03:40:02 AM 35.6490 140.4910 328° Northwest 188 216 3,000 -327 Level FlightAware ADS-B
Wed 03:40:32 AM 35.6720 140.4750 331° Northwest 190 219 2,700 -764 Descending FlightAware ADS-B
Wed 03:40:57 AM 35.6900 140.4610 328° Northwest 186 214 2,300 -943 Descending FlightAware ADS-B
Wed 03:41:42 AM 35.7210 140.4390 330° Northwest 186 214 1,600 -575 Descending FlightAware ADS-B
Wed 03:42:10 AM 35.7390 140.4260 330° Northwest 186 214 1,600  Level FlightAware ADS-B

Login

Don't have an account? Register now (free) for customized features, flight alerts, and more!